createdAt,value
2023-02-17T00:01:36.769Z,42.20
2023-02-17T00:04:07.898Z,39.80
2023-02-17T00:06:39.459Z,39.50
2023-02-17T00:09:10.522Z,43.20
2023-02-17T00:11:41.761Z,40.20
2023-02-17T00:14:15.404Z,41.70
2023-02-17T00:16:47.384Z,40.80
2023-02-17T00:19:25.281Z,41.40
2023-02-17T00:21:59.978Z,40.70
2023-02-17T00:24:35.117Z,40.90
2023-02-17T00:29:36.680Z,39.40
2023-02-17T00:32:10.601Z,42.10
2023-02-17T00:34:42.497Z,38.60
2023-02-17T00:37:13.626Z,41.90
2023-02-17T00:39:44.863Z,44.50
2023-02-17T00:42:15.801Z,40.30
2023-02-17T00:44:47.525Z,39.80
2023-02-17T00:47:18.514Z,40.80
2023-02-17T00:49:51.426Z,40.90
2023-02-17T00:52:23.124Z,40.10
2023-02-17T00:54:54.682Z,42.30
2023-02-17T00:57:26.423Z,40.40
2023-02-17T00:59:58.644Z,40.50
2023-02-17T01:02:30.789Z,39.30
2023-02-17T01:05:06.551Z,42.90
2023-02-17T01:07:37.728Z,41.60
2023-02-17T01:10:10.882Z,39.60
2023-02-17T01:12:42.797Z,41.90
2023-02-17T01:15:14.709Z,42.60
2023-02-17T01:17:46.746Z,41.20
2023-02-17T01:20:18.360Z,43.10
2023-02-17T01:22:49.505Z,42.00
2023-02-17T01:25:21.080Z,39.80
2023-02-17T01:27:52.944Z,43.00
2023-02-17T01:30:25.231Z,41.00
2023-02-17T01:32:56.484Z,40.40
2023-02-17T01:35:27.698Z,39.80
2023-02-17T01:37:58.736Z,39.20
2023-02-17T01:40:30.380Z,39.80
2023-02-17T01:43:02.060Z,39.80
2023-02-17T01:45:47.786Z,40.60
2023-02-17T01:48:22.556Z,41.20
2023-02-17T01:50:59.532Z,41.10
2023-02-17T01:53:36.764Z,38.20
2023-02-17T01:56:10.992Z,38.60
2023-02-17T01:58:46.169Z,40.80
2023-02-17T02:01:18.298Z,38.40
2023-02-17T02:03:50.513Z,39.70
2023-02-17T02:06:25.050Z,38.00
2023-02-17T02:09:00.723Z,37.00
2023-02-17T02:11:33.184Z,38.30
2023-02-17T02:14:06.928Z,39.00
2023-02-17T02:16:50.046Z,40.20
2023-02-17T02:19:38.838Z,40.20
2023-02-17T02:22:38.769Z,39.00
2023-02-17T02:25:25.403Z,35.90
2023-02-17T02:28:06.606Z,36.00
2023-02-17T02:30:53.736Z,36.20
2023-02-17T02:33:33.839Z,39.10
2023-02-17T02:36:12.584Z,36.40
2023-02-17T02:38:48.806Z,35.90
2023-02-17T02:41:24.249Z,35.40
2023-02-17T02:43:56.101Z,37.40
2023-02-17T02:46:27.302Z,36.40
2023-02-17T02:48:58.442Z,38.00
2023-02-17T02:51:40.659Z,38.60
2023-02-17T02:54:38.256Z,37.90
2023-02-17T02:57:31.976Z,39.10
2023-02-17T03:00:13.289Z,38.30
2023-02-17T03:02:52.464Z,38.70
2023-02-17T03:05:34.132Z,38.50
2023-02-17T03:08:09.890Z,40.60
2023-02-17T03:10:48.434Z,40.00
2023-02-17T03:13:20.586Z,39.20
2023-02-17T03:15:51.952Z,38.80
2023-02-17T03:18:22.958Z,35.50
2023-02-17T03:20:59.227Z,38.20
2023-02-17T03:23:30.237Z,35.40
2023-02-17T03:26:01.195Z,36.00
2023-02-17T03:28:33.229Z,40.70
2023-02-17T03:31:05.346Z,36.70
2023-02-17T03:33:36.575Z,36.80
2023-02-17T03:36:08.970Z,38.20
2023-02-17T03:38:40.060Z,36.50
2023-02-17T03:41:11.235Z,39.00
2023-02-17T03:43:42.275Z,37.50
2023-02-17T03:46:16.426Z,36.90
2023-02-17T03:48:47.726Z,38.30
2023-02-17T03:51:22.355Z,39.70
2023-02-17T03:53:53.760Z,40.60
2023-02-17T03:56:25.213Z,38.20
2023-02-17T03:58:56.296Z,36.60
2023-02-17T04:01:27.470Z,37.70
2023-02-17T04:03:58.536Z,36.00
2023-02-17T04:06:29.980Z,39.30
2023-02-17T04:09:00.905Z,36.40
2023-02-17T04:11:32.581Z,35.10
2023-02-17T04:14:03.696Z,39.20
2023-02-17T04:16:34.722Z,37.80
2023-02-17T04:19:06.375Z,38.40
2023-02-17T04:21:37.520Z,38.20
2023-02-17T04:24:08.966Z,39.00
2023-02-17T04:26:40.221Z,37.10
2023-02-17T04:29:11.203Z,36.90
2023-02-17T04:31:42.499Z,38.00
2023-02-17T04:34:13.582Z,39.80
2023-02-17T04:36:44.666Z,36.60
2023-02-17T04:39:15.729Z,38.70
2023-02-17T04:41:46.867Z,35.80
2023-02-17T04:44:17.953Z,37.80
2023-02-17T04:46:48.914Z,34.70
2023-02-17T04:49:19.852Z,34.40
2023-02-17T04:51:50.885Z,35.10
2023-02-17T04:54:23.437Z,35.80
2023-02-17T04:56:54.963Z,37.90
2023-02-17T04:59:26.031Z,34.40
2023-02-17T05:01:57.176Z,40.00
2023-02-17T05:04:28.968Z,44.00
2023-02-17T05:07:01.035Z,37.80
2023-02-17T05:09:32.258Z,37.50
2023-02-17T05:12:05.672Z,35.20
2023-02-17T05:14:41.189Z,36.70
2023-02-17T05:17:12.203Z,37.10
2023-02-17T05:19:43.171Z,36.00
2023-02-17T05:22:15.641Z,36.20
2023-02-17T05:24:46.574Z,36.60
2023-02-17T05:27:17.528Z,34.30
2023-02-17T05:29:56.576Z,40.30
2023-02-17T05:32:27.520Z,36.00
2023-02-17T05:34:58.460Z,36.60
2023-02-17T05:37:29.462Z,37.40
2023-02-17T05:40:00.492Z,37.80
2023-02-17T05:42:37.703Z,37.60
2023-02-17T05:45:09.580Z,37.40
2023-02-17T05:47:40.510Z,36.30
2023-02-17T05:50:14.433Z,38.90
2023-02-17T05:52:48.161Z,36.50
2023-02-17T05:55:24.451Z,36.20
2023-02-17T05:58:16.381Z,35.70
2023-02-17T06:00:48.119Z,36.50
2023-02-17T06:03:20.393Z,36.50
2023-02-17T06:05:53.938Z,37.60
2023-02-17T06:08:24.969Z,36.30
2023-02-17T06:11:18.978Z,39.80
2023-02-17T06:13:50.120Z,38.50
2023-02-17T06:16:23.433Z,36.70
2023-02-17T06:19:18.726Z,36.20
2023-02-17T06:21:49.698Z,35.20
2023-02-17T06:25:03.871Z,36.90
2023-02-17T06:27:35.276Z,35.40
2023-02-17T06:30:30.720Z,36.20
2023-02-17T06:33:05.753Z,34.50
2023-02-17T06:35:37.008Z,38.30
2023-02-17T06:38:30.305Z,36.70
2023-02-17T06:41:01.442Z,33.80
2023-02-17T06:43:32.567Z,37.60
2023-02-17T06:46:09.507Z,38.70
2023-02-17T06:48:43.742Z,38.90
2023-02-17T06:51:18.874Z,34.70
2023-02-17T06:53:55.434Z,33.90
2023-02-17T06:56:26.672Z,35.50
2023-02-17T06:58:57.996Z,38.20
2023-02-17T07:01:29.439Z,35.00
2023-02-17T07:04:01.231Z,37.00
2023-02-17T07:06:34.837Z,34.70
2023-02-17T07:09:56.226Z,35.20
2023-02-17T07:12:29.044Z,34.60
2023-02-17T07:15:22.126Z,37.60
2023-02-17T07:18:19.337Z,34.90
2023-02-17T07:20:50.477Z,33.80
2023-02-17T07:23:21.594Z,30.70
2023-02-17T07:25:55.178Z,38.00
2023-02-17T07:28:26.979Z,35.10
2023-02-17T07:30:58.346Z,33.60
2023-02-17T07:33:30.374Z,32.00
2023-02-17T07:36:05.808Z,35.80
2023-02-17T07:38:39.530Z,36.70
2023-02-17T07:41:24.843Z,36.50
2023-02-17T07:46:31.189Z,33.30
2023-02-17T07:49:02.179Z,34.40
2023-02-17T07:51:36.912Z,34.70
2023-02-17T07:54:08.326Z,32.40
2023-02-17T07:56:39.435Z,32.00
2023-02-17T07:59:17.811Z,33.50
2023-02-17T08:01:51.929Z,34.30
2023-02-17T08:04:25.750Z,34.40
2023-02-17T08:06:57.103Z,32.90
2023-02-17T08:09:48.875Z,33.70
2023-02-17T08:12:39.189Z,32.50
2023-02-17T08:15:13.528Z,34.20
2023-02-17T08:17:58.499Z,34.50
2023-02-17T08:20:33.112Z,34.00
2023-02-17T08:23:12.900Z,34.50
2023-02-17T08:25:44.004Z,34.00
2023-02-17T08:28:18.207Z,32.90
2023-02-17T08:30:52.987Z,34.80
2023-02-17T08:33:24.231Z,26.60
2023-02-17T08:35:55.607Z,33.30
2023-02-17T08:38:27.308Z,31.20
2023-02-17T08:40:58.404Z,33.70
2023-02-17T08:43:40.531Z,32.30
2023-02-17T08:46:14.013Z,31.90
2023-02-17T08:48:46.005Z,32.00
2023-02-17T08:51:27.989Z,32.40
2023-02-17T08:54:13.162Z,32.10
2023-02-17T08:59:15.711Z,30.90
2023-02-17T09:22:31.916Z,31.60
2023-02-17T09:25:00.978Z,32.70
2023-02-17T09:27:31.065Z,32.40
2023-02-17T09:30:04.496Z,33.00
2023-02-17T09:32:33.195Z,30.40
2023-02-17T09:38:46.236Z,31.20
2023-02-17T09:41:39.355Z,31.60
2023-02-17T09:44:17.472Z,32.00
2023-02-17T09:47:18.616Z,32.10
2023-02-17T09:49:52.245Z,32.10
2023-02-17T09:52:26.240Z,29.60
2023-02-17T09:55:03.600Z,31.30
2023-02-17T09:57:37.238Z,31.80
2023-02-17T10:00:49.297Z,31.80
2023-02-17T10:03:24.014Z,32.80
2023-02-17T10:05:56.922Z,30.70
2023-02-17T10:08:45.259Z,31.40
2023-02-17T10:11:42.926Z,33.10
2023-02-17T10:14:18.187Z,31.40
2023-02-17T10:16:51.859Z,31.10
2023-02-17T10:19:27.266Z,31.00
2023-02-17T10:22:03.332Z,31.80
2023-02-17T10:24:31.946Z,31.60
2023-02-17T10:27:22.369Z,30.00
2023-02-17T10:30:05.779Z,32.00
2023-02-17T10:32:56.869Z,30.70
2023-02-17T10:35:38.145Z,29.10
2023-02-17T10:38:15.490Z,31.70
2023-02-17T10:40:51.321Z,28.90
2023-02-17T10:43:26.560Z,31.00
2023-02-17T10:45:55.766Z,31.40
2023-02-17T10:48:32.576Z,30.50
2023-02-17T10:51:01.826Z,30.80
2023-02-17T10:53:34.576Z,30.40
2023-02-17T10:56:08.764Z,30.50
2023-02-17T10:58:42.956Z,33.20
2023-02-17T11:01:18.517Z,31.80
2023-02-17T11:03:47.236Z,34.00
2023-02-17T11:06:21.688Z,31.90
2023-02-17T11:08:56.054Z,32.00
2023-02-17T11:11:29.953Z,35.10
2023-02-17T11:14:13.454Z,32.00
2023-02-17T11:16:46.566Z,32.70
2023-02-17T11:19:25.096Z,31.00
2023-02-17T11:21:55.673Z,31.30
2023-02-17T11:24:25.405Z,32.80
2023-02-17T11:27:00.002Z,29.40
2023-02-17T11:29:30.065Z,34.90
2023-02-17T11:32:04.213Z,32.90
2023-02-17T11:34:36.026Z,32.40
2023-02-17T11:37:21.491Z,34.30
2023-02-17T11:39:52.837Z,33.40
2023-02-17T11:42:23.136Z,34.40
2023-02-17T11:45:17.489Z,33.60
2023-02-17T11:47:59.078Z,32.00
2023-02-17T11:50:41.740Z,33.60
2023-02-17T11:53:26.347Z,33.60
2023-02-17T11:56:13.860Z,31.40
2023-02-17T11:59:15.813Z,35.40
2023-02-17T12:02:02.009Z,29.00
2023-02-17T12:04:32.045Z,31.90
2023-02-17T12:07:29.720Z,32.90
2023-02-17T12:10:06.479Z,30.80
2023-02-17T12:12:51.428Z,33.50
2023-02-17T12:15:36.708Z,32.30
2023-02-17T12:18:40.416Z,31.00
2023-02-17T12:21:15.961Z,33.70
2023-02-17T12:24:05.777Z,33.00
2023-02-17T12:26:46.913Z,32.90
2023-02-17T12:29:30.643Z,30.30
2023-02-17T12:32:18.134Z,30.20
2023-02-17T12:34:54.683Z,30.40
2023-02-17T12:37:27.261Z,33.20
2023-02-17T12:40:02.371Z,35.80
2023-02-17T12:42:35.141Z,31.90
2023-02-17T12:45:08.385Z,28.40
2023-02-17T12:48:01.708Z,30.60
2023-02-17T12:50:37.431Z,27.90
2023-02-17T12:54:09.131Z,28.90
2023-02-17T12:57:11.659Z,28.00
2023-02-17T12:59:51.976Z,31.00
2023-02-17T13:02:22.662Z,30.50
2023-02-17T13:04:53.647Z,29.20
2023-02-17T13:07:33.289Z,29.30
2023-02-17T13:10:02.831Z,29.20
2023-02-17T13:12:35.711Z,28.00
2023-02-17T13:15:23.011Z,27.00
2023-02-17T13:18:00.797Z,27.90
2023-02-17T13:20:45.256Z,27.50
2023-02-17T13:23:26.962Z,26.30
2023-02-17T13:26:13.312Z,26.20
2023-02-17T13:28:42.759Z,22.80
2023-02-17T13:31:18.633Z,26.80
2023-02-17T13:33:52.480Z,25.70
2023-02-17T13:36:35.013Z,23.30
2023-02-17T13:39:08.516Z,24.70
2023-02-17T13:41:47.886Z,23.40
2023-02-17T13:44:28.441Z,21.50
2023-02-17T13:47:00.820Z,23.10
2023-02-17T13:49:34.522Z,21.00
2023-02-17T13:52:15.805Z,22.00
2023-02-17T13:54:53.463Z,21.80
2023-02-17T13:57:29.385Z,24.00
2023-02-17T14:00:21.688Z,23.70
2023-02-17T14:03:18.909Z,22.30
2023-02-17T14:05:51.825Z,23.60
2023-02-17T14:08:26.858Z,20.60
2023-02-17T14:10:56.450Z,22.40
2023-02-17T14:13:25.862Z,23.20
2023-02-17T14:16:06.997Z,22.70
2023-02-17T14:18:39.384Z,23.80
2023-02-17T14:21:26.999Z,24.00
2023-02-17T14:23:58.685Z,24.50
2023-02-17T14:26:35.700Z,24.00
2023-02-17T14:29:06.667Z,22.90
2023-02-17T14:31:40.069Z,26.30
2023-02-17T14:34:24.152Z,24.60
2023-02-17T14:36:52.446Z,25.40
2023-02-17T14:39:21.539Z,22.00
2023-02-17T14:41:50.364Z,25.30
2023-02-17T14:44:19.100Z,23.40
2023-02-17T14:46:47.660Z,22.80
2023-02-17T14:49:15.964Z,25.60
2023-02-17T14:51:44.313Z,22.90
2023-02-17T14:54:15.487Z,25.80
2023-02-17T14:56:48.307Z,24.00
2023-02-17T14:59:17.348Z,21.10
2023-02-17T15:01:47.936Z,23.60
2023-02-17T15:04:16.342Z,25.30
2023-02-17T15:06:47.478Z,20.90
2023-02-17T15:09:17.372Z,22.40
2023-02-17T15:11:48.337Z,23.20
2023-02-17T15:14:19.514Z,23.00
2023-02-17T15:16:48.970Z,24.80
2023-02-17T15:19:17.895Z,25.20
2023-02-17T15:21:49.068Z,23.30
2023-02-17T15:24:20.880Z,24.70
2023-02-17T15:26:49.235Z,23.30
2023-02-17T15:29:22.530Z,23.60
2023-02-17T15:31:53.708Z,25.90
2023-02-17T15:34:25.311Z,24.50
2023-02-17T15:36:53.919Z,25.40
2023-02-17T15:39:22.126Z,26.80
2023-02-17T15:41:52.309Z,24.30
2023-02-17T15:44:23.863Z,23.50
2023-02-17T15:46:55.537Z,22.70
2023-02-17T15:49:25.509Z,23.20
2023-02-17T15:51:53.830Z,21.90
2023-02-17T15:54:22.565Z,21.40
2023-02-17T15:56:53.533Z,23.20
2023-02-17T15:59:25.604Z,25.80
2023-02-17T16:01:55.445Z,23.40
2023-02-17T16:04:23.633Z,22.20
2023-02-17T16:06:52.726Z,25.20
2023-02-17T16:09:22.430Z,21.10
2023-02-17T16:11:53.453Z,18.90
2023-02-17T16:14:28.262Z,20.90
2023-02-17T16:16:56.534Z,18.30
2023-02-17T16:19:25.396Z,18.80
2023-02-17T16:21:53.682Z,19.70
2023-02-17T16:24:21.872Z,19.30
2023-02-17T16:26:50.297Z,19.40
2023-02-17T16:29:20.976Z,18.10
2023-02-17T16:31:50.307Z,19.00
2023-02-17T16:34:21.385Z,17.50
2023-02-17T16:36:50.694Z,18.00
2023-02-17T16:39:21.116Z,18.10
2023-02-17T16:41:49.893Z,19.20
2023-02-17T16:44:22.445Z,18.50
2023-02-17T16:46:52.619Z,18.70
2023-02-17T16:49:31.257Z,18.00
2023-02-17T16:52:00.365Z,17.20
2023-02-17T16:54:28.750Z,18.50
2023-02-17T16:56:58.227Z,17.30
2023-02-17T16:59:27.715Z,17.40
2023-02-17T17:01:56.303Z,17.50
2023-02-17T17:04:24.713Z,18.20
2023-02-17T17:06:53.397Z,17.90
2023-02-17T17:09:23.877Z,18.20
2023-02-17T17:11:52.116Z,18.50
2023-02-17T17:14:21.895Z,18.40
2023-02-17T17:16:55.315Z,15.80
2023-02-17T17:19:23.789Z,18.20
2023-02-17T17:21:52.195Z,18.90
2023-02-17T17:24:21.167Z,15.70
2023-02-17T17:26:51.074Z,16.70
2023-02-17T17:29:20.252Z,16.80
2023-02-17T17:31:49.035Z,16.90
2023-02-17T17:34:17.518Z,17.00
2023-02-17T17:36:47.272Z,15.80
2023-02-17T17:39:17.283Z,16.70
2023-02-17T17:41:46.131Z,15.40
2023-02-17T17:44:16.189Z,16.00
2023-02-17T17:46:44.837Z,15.90
2023-02-17T17:49:16.129Z,16.10
2023-02-17T17:51:45.547Z,12.90
2023-02-17T17:54:13.817Z,15.50
2023-02-17T17:56:43.270Z,17.30
2023-02-17T17:59:22.874Z,15.10
2023-02-17T18:01:51.396Z,13.90
2023-02-17T18:04:19.736Z,13.10
2023-02-17T18:06:51.198Z,14.40
2023-02-17T18:09:31.404Z,13.30
2023-02-17T18:12:07.216Z,12.70
2023-02-17T18:14:38.578Z,12.80
2023-02-17T18:17:08.865Z,12.30
2023-02-17T18:19:37.585Z,12.30
2023-02-17T18:22:06.347Z,12.00
2023-02-17T18:24:37.089Z,12.10
2023-02-17T18:27:10.470Z,12.60
2023-02-17T18:29:38.843Z,12.30
2023-02-17T18:32:07.197Z,11.80
2023-02-17T18:34:35.883Z,11.80
2023-02-17T18:37:04.503Z,10.50
2023-02-17T18:39:33.392Z,12.20
2023-02-17T18:42:09.862Z,13.70
2023-02-17T18:44:38.594Z,12.10
2023-02-17T18:47:06.856Z,13.70
2023-02-17T18:49:35.591Z,13.00
2023-02-17T18:52:04.140Z,12.50
2023-02-17T18:54:32.452Z,12.00
2023-02-17T18:57:17.603Z,12.40
2023-02-17T18:59:46.163Z,13.20
2023-02-17T19:02:15.262Z,12.60
2023-02-17T19:04:43.793Z,11.40
2023-02-17T19:07:12.233Z,13.00
2023-02-17T19:09:42.673Z,12.40
2023-02-17T19:12:13.234Z,12.60
2023-02-17T19:14:44.114Z,13.60
2023-02-17T19:17:13.006Z,13.10
2023-02-17T19:19:41.951Z,11.40
2023-02-17T19:22:10.803Z,13.40
2023-02-17T19:24:40.809Z,12.00
2023-02-17T19:27:09.858Z,13.50
2023-02-17T19:29:38.267Z,13.90
2023-02-17T19:32:28.216Z,10.70
2023-02-17T19:35:16.766Z,13.50
2023-02-17T19:38:02.997Z,12.20
2023-02-17T19:41:09.939Z,14.00
2023-02-17T19:44:00.315Z,13.50
2023-02-17T19:46:54.666Z,14.30
2023-02-17T19:49:47.113Z,14.70
2023-02-17T19:52:20.251Z,13.60
2023-02-17T19:55:11.388Z,14.90
2023-02-17T19:57:49.895Z,15.70
2023-02-17T20:00:44.296Z,15.40
2023-02-17T20:03:15.590Z,15.10
2023-02-17T20:05:46.316Z,15.00
2023-02-17T20:08:17.329Z,17.80
2023-02-17T20:10:47.689Z,17.30
2023-02-17T20:13:16.068Z,15.80
2023-02-17T20:15:44.691Z,16.50
2023-02-17T20:18:13.255Z,15.70
2023-02-17T20:20:45.410Z,17.30
2023-02-17T20:23:14.397Z,16.60
2023-02-17T20:25:42.584Z,16.10
2023-02-17T20:28:11.150Z,16.10
2023-02-17T20:31:09.003Z,15.60
2023-02-17T20:33:56.346Z,15.80
2023-02-17T20:36:33.456Z,16.80
2023-02-17T20:39:10.716Z,16.30
2023-02-17T20:41:48.090Z,16.00
2023-02-17T20:44:43.289Z,16.70
2023-02-17T20:47:49.439Z,16.40
2023-02-17T20:50:28.627Z,15.60
2023-02-17T20:53:25.512Z,16.00
2023-02-17T20:56:17.858Z,15.60
2023-02-17T20:58:59.268Z,15.00
2023-02-17T21:01:47.604Z,15.30
2023-02-17T21:04:22.470Z,16.30
2023-02-17T21:06:59.370Z,14.20
2023-02-17T21:10:00.356Z,13.90
2023-02-17T21:12:32.068Z,14.50
2023-02-17T21:15:12.923Z,15.00
2023-02-17T21:17:48.990Z,13.60
2023-02-17T21:20:39.149Z,13.40
2023-02-17T21:23:24.972Z,13.60
2023-02-17T21:26:13.274Z,14.00
2023-02-17T21:29:01.058Z,13.50
2023-02-17T21:31:36.757Z,13.40
2023-02-17T21:34:09.728Z,13.10
2023-02-17T21:36:46.383Z,12.20
2023-02-17T21:39:18.745Z,11.30
2023-02-17T21:41:48.811Z,11.70
2023-02-17T21:44:38.491Z,10.60
2023-02-17T21:47:07.528Z,9.70
2023-02-17T21:49:36.440Z,9.60
2023-02-17T21:52:05.485Z,9.80
2023-02-17T21:54:34.375Z,9.60
2023-02-17T21:57:04.416Z,9.30
2023-02-17T21:59:33.253Z,9.30
2023-02-17T22:02:01.476Z,8.00
2023-02-17T22:04:30.724Z,8.80
2023-02-17T22:06:59.496Z,7.30
2023-02-17T22:09:27.739Z,6.30
2023-02-17T22:11:56.075Z,7.00
2023-02-17T22:14:25.574Z,7.90
2023-02-17T22:16:54.373Z,6.00
2023-02-17T22:19:24.328Z,6.10
2023-02-17T22:21:53.867Z,4.60
2023-02-17T22:24:22.354Z,4.70
2023-02-17T22:26:50.839Z,4.50
2023-02-17T22:29:19.254Z,3.70
2023-02-17T22:31:49.818Z,3.70
2023-02-17T22:34:18.375Z,3.40
2023-02-17T22:36:49.558Z,2.90
2023-02-17T22:39:18.128Z,3.30
2023-02-17T22:41:46.495Z,3.10
2023-02-17T22:44:14.720Z,2.60
2023-02-17T22:46:43.071Z,3.30
2023-02-17T22:49:11.343Z,2.70
2023-02-17T22:51:40.311Z,2.70
2023-02-17T22:54:09.393Z,2.80
2023-02-17T22:56:38.048Z,2.70
2023-02-17T22:59:06.868Z,2.70
2023-02-17T23:01:36.713Z,2.30
2023-02-17T23:04:06.152Z,2.20
2023-02-17T23:06:39.518Z,2.60
2023-02-17T23:09:12.014Z,2.50
2023-02-17T23:11:50.695Z,2.60
2023-02-17T23:14:22.128Z,2.50
2023-02-17T23:16:50.625Z,2.60
2023-02-17T23:19:21.411Z,2.60
2023-02-17T23:21:52.860Z,2.10
2023-02-17T23:24:22.536Z,2.30
2023-02-17T23:26:52.083Z,2.50
2023-02-17T23:29:20.679Z,2.60
2023-02-17T23:31:49.449Z,2.60
2023-02-17T23:34:17.935Z,2.50
2023-02-17T23:36:46.968Z,2.50
2023-02-17T23:39:16.517Z,2.30
2023-02-17T23:41:45.384Z,2.40
2023-02-17T23:44:14.844Z,2.50
2023-02-17T23:46:44.740Z,2.20
2023-02-17T23:49:15.591Z,2.40
2023-02-17T23:51:46.279Z,2.30
2023-02-17T23:54:14.966Z,2.20
2023-02-17T23:56:43.684Z,2.70
2023-02-17T23:59:14.288Z,2.40
